createdAt,value
2023-04-08T00:01:46.105Z,5.18
2023-04-08T00:04:14.757Z,5.23
2023-04-08T00:06:43.371Z,5.25
2023-04-08T00:09:11.365Z,5.23
2023-04-08T00:11:39.304Z,5.24
2023-04-08T00:14:07.441Z,5.18
2023-04-08T00:16:35.562Z,5.17
2023-04-08T00:19:06.615Z,5.12
2023-04-08T00:21:34.921Z,5.15
2023-04-08T00:24:02.979Z,5.17
2023-04-08T00:26:31.018Z,5.16
2023-04-08T00:28:59.114Z,5.09
2023-04-08T00:31:27.313Z,5.12
2023-04-08T00:33:55.294Z,5.12
2023-04-08T00:36:24.708Z,5.13
2023-04-08T00:38:52.592Z,5.13
2023-04-08T00:41:20.600Z,5.15
2023-04-08T00:43:48.950Z,5.19
2023-04-08T00:46:17.061Z,5.22
2023-04-08T00:48:45.329Z,5.17
2023-04-08T00:51:13.496Z,5.19
2023-04-08T00:53:42.890Z,5.19
2023-04-08T00:56:10.963Z,5.17
2023-04-08T00:58:39.675Z,5.10
2023-04-08T01:01:13.727Z,5.21
2023-04-08T01:03:51.965Z,5.19
2023-04-08T01:06:29.780Z,5.25
2023-04-08T01:09:01.921Z,5.19
2023-04-08T01:11:33.933Z,5.22
2023-04-08T01:14:07.337Z,5.21
2023-04-08T01:16:36.142Z,5.23
2023-04-08T01:19:04.990Z,5.16
2023-04-08T01:21:33.771Z,5.20
2023-04-08T01:24:10.661Z,5.18
2023-04-08T01:26:41.838Z,5.23
2023-04-08T01:29:12.008Z,5.20
2023-04-08T01:31:43.197Z,5.19
2023-04-08T01:34:12.959Z,5.18
2023-04-08T01:36:42.626Z,5.18
2023-04-08T01:39:11.086Z,5.18
2023-04-08T01:41:41.103Z,5.19
2023-04-08T01:44:10.845Z,5.16
2023-04-08T01:46:40.414Z,5.15
2023-04-08T01:49:09.071Z,5.20
2023-04-08T01:51:39.054Z,5.18
2023-04-08T01:54:07.136Z,5.17
2023-04-08T01:56:39.188Z,5.13
2023-04-08T01:59:12.808Z,5.16
2023-04-08T02:01:41.938Z,5.14
2023-04-08T02:04:10.020Z,5.12
2023-04-08T02:06:39.255Z,5.10
2023-04-08T02:09:08.200Z,5.11
2023-04-08T02:11:36.163Z,5.14
2023-04-08T02:14:04.087Z,5.11
2023-04-08T02:16:41.367Z,5.14
2023-04-08T02:19:13.149Z,5.12
2023-04-08T02:21:47.937Z,5.15
2023-04-08T02:24:18.525Z,5.11
2023-04-08T02:26:49.101Z,5.08
2023-04-08T02:29:18.548Z,5.05
2023-04-08T02:31:51.533Z,5.12
2023-04-08T02:34:22.204Z,5.15
2023-04-08T02:36:54.079Z,5.12
2023-04-08T02:39:22.126Z,5.09
2023-04-08T02:41:50.062Z,5.11
2023-04-08T02:44:18.133Z,5.14
2023-04-08T02:46:47.513Z,5.16
2023-04-08T02:49:15.596Z,5.17
2023-04-08T02:51:44.270Z,5.14
2023-04-08T02:54:12.202Z,5.15
2023-04-08T02:56:40.304Z,5.16
2023-04-08T02:59:08.359Z,5.20
2023-04-08T03:01:36.528Z,5.23
2023-04-08T03:04:06.387Z,5.19
2023-04-08T03:06:34.767Z,5.24
2023-04-08T03:09:02.997Z,5.26
2023-04-08T03:11:31.184Z,5.25
2023-04-08T03:13:59.694Z,5.23
2023-04-08T03:16:28.181Z,5.18
2023-04-08T03:18:56.190Z,5.18
2023-04-08T03:21:27.162Z,5.10
2023-04-08T03:23:55.292Z,5.15
2023-04-08T03:26:23.259Z,5.10
2023-04-08T03:28:51.648Z,5.11
2023-04-08T03:31:21.313Z,5.08
2023-04-08T03:33:49.445Z,5.08
2023-04-08T03:36:17.785Z,5.06
2023-04-08T03:38:47.194Z,5.07
2023-04-08T03:41:15.201Z,5.06
2023-04-08T03:43:43.445Z,5.06
2023-04-08T03:46:11.474Z,5.09
2023-04-08T03:48:39.501Z,5.05
2023-04-08T03:51:07.557Z,5.07
2023-04-08T03:53:35.709Z,5.03
2023-04-08T03:56:05.095Z,5.03
2023-04-08T03:58:33.492Z,5.04
2023-04-08T04:01:01.484Z,5.05
2023-04-08T04:03:29.697Z,5.07
2023-04-08T04:05:58.159Z,5.04
2023-04-08T04:08:26.112Z,5.05
2023-04-08T04:10:54.236Z,5.01
2023-04-08T04:13:23.953Z,5.06
2023-04-08T04:15:51.967Z,5.08
2023-04-08T04:18:20.087Z,5.08
2023-04-08T04:20:48.365Z,5.03
2023-04-08T04:23:16.352Z,4.98
2023-04-08T04:25:44.846Z,5.02
2023-04-08T04:28:12.817Z,5.02
2023-04-08T04:30:42.187Z,5.01
2023-04-08T04:33:10.225Z,5.05
2023-04-08T04:35:38.372Z,5.06
2023-04-08T04:38:10.703Z,5.05
2023-04-08T04:40:38.953Z,5.06
2023-04-08T04:43:07.122Z,5.03
2023-04-08T04:45:35.126Z,5.03
2023-04-08T04:48:04.961Z,5.03
2023-04-08T04:50:33.134Z,5.08
2023-04-08T04:53:01.412Z,5.07
2023-04-08T04:55:30.063Z,5.04
2023-04-08T04:57:58.022Z,5.03
2023-04-08T05:00:26.007Z,5.04
2023-04-08T05:02:54.522Z,5.04
2023-04-08T05:05:23.888Z,5.04
2023-04-08T05:07:51.975Z,5.03
2023-04-08T05:10:20.906Z,5.06
2023-04-08T05:12:48.759Z,5.07
2023-04-08T05:15:17.029Z,5.11
2023-04-08T05:17:44.984Z,5.02
2023-04-08T05:20:12.981Z,5.04
2023-04-08T05:22:42.657Z,5.02
2023-04-08T05:25:11.835Z,5.04
2023-04-08T05:27:40.699Z,5.08
2023-04-08T05:30:10.121Z,5.00
2023-04-08T05:32:38.405Z,5.00
2023-04-08T05:35:07.323Z,5.10
2023-04-08T05:37:37.480Z,5.09
2023-04-08T05:40:08.596Z,5.04
2023-04-08T05:42:39.576Z,5.05
2023-04-08T05:45:09.224Z,5.10
2023-04-08T05:47:37.293Z,5.17
2023-04-08T05:50:05.605Z,5.25
2023-04-08T05:52:33.869Z,5.22
2023-04-08T05:55:01.872Z,5.15
2023-04-08T05:57:31.224Z,5.25
2023-04-08T05:59:59.636Z,5.22
2023-04-08T06:02:28.052Z,5.23
2023-04-08T06:04:56.657Z,5.25
2023-04-08T06:07:24.935Z,5.32
2023-04-08T06:09:52.883Z,5.31
2023-04-08T06:12:21.113Z,5.31
2023-04-08T06:14:55.633Z,5.41
2023-04-08T06:17:23.909Z,5.47
2023-04-08T06:19:52.055Z,5.61
2023-04-08T06:22:20.067Z,5.58
2023-04-08T06:24:48.858Z,5.54
2023-04-08T06:27:17.203Z,5.61
2023-04-08T06:29:45.495Z,5.58
2023-04-08T06:32:15.062Z,5.64
2023-04-08T06:34:43.244Z,5.68
2023-04-08T06:37:11.475Z,5.75
2023-04-08T06:39:39.504Z,5.64
2023-04-08T06:42:07.589Z,5.67
2023-04-08T06:44:36.293Z,5.72
2023-04-08T06:47:04.876Z,5.65
2023-04-08T06:49:35.306Z,5.63
2023-04-08T06:52:04.725Z,5.70
2023-04-08T06:54:33.372Z,5.73
2023-04-08T06:57:02.278Z,5.79
2023-04-08T06:59:31.527Z,5.92
2023-04-08T07:01:59.834Z,5.91
2023-04-08T07:04:28.348Z,6.05
2023-04-08T07:06:58.403Z,5.94
2023-04-08T07:09:26.602Z,5.97
2023-04-08T07:11:54.597Z,6.05
2023-04-08T07:14:22.914Z,6.00
2023-04-08T07:16:50.951Z,5.99
2023-04-08T07:19:19.260Z,6.06
2023-04-08T07:21:47.468Z,6.01
2023-04-08T07:24:16.924Z,6.08
2023-04-08T07:26:44.896Z,6.16
2023-04-08T07:29:13.179Z,6.31
2023-04-08T07:31:41.154Z,6.24
2023-04-08T07:34:09.145Z,6.21
2023-04-08T07:36:37.528Z,6.19
2023-04-08T07:39:05.746Z,6.21
2023-04-08T07:41:35.574Z,6.08
2023-04-08T07:44:03.676Z,6.24
2023-04-08T07:46:31.808Z,6.27
2023-04-08T07:48:59.900Z,6.22
2023-04-08T07:51:28.675Z,6.29
2023-04-08T07:53:57.062Z,6.24
2023-04-08T07:56:25.011Z,6.32
2023-04-08T07:58:55.273Z,6.50
2023-04-08T08:01:24.736Z,6.63
2023-04-08T08:03:54.418Z,6.64
2023-04-08T08:06:23.415Z,6.87
2023-04-08T08:08:51.321Z,6.98
2023-04-08T08:11:19.398Z,6.99
2023-04-08T08:13:47.383Z,6.87
2023-04-08T08:16:16.802Z,6.93
2023-04-08T08:18:44.922Z,6.84
2023-04-08T08:21:13.202Z,7.06
2023-04-08T08:23:41.276Z,6.96
2023-04-08T08:26:11.290Z,6.93
2023-04-08T08:28:39.560Z,7.16
2023-04-08T08:31:07.927Z,7.32
2023-04-08T08:33:37.492Z,7.33
2023-04-08T08:36:08.143Z,7.39
2023-04-08T08:38:36.253Z,7.44
2023-04-08T08:41:05.104Z,7.52
2023-04-08T08:43:34.821Z,7.61
2023-04-08T08:46:03.438Z,7.98
2023-04-08T08:48:32.795Z,8.23
2023-04-08T08:51:02.680Z,7.93
2023-04-08T08:53:35.119Z,7.66
2023-04-08T08:58:34.870Z,7.44
2023-04-08T09:01:02.811Z,7.42
2023-04-08T09:03:31.393Z,7.33
2023-04-08T09:06:03.966Z,7.49
2023-04-08T09:08:33.833Z,7.68
2023-04-08T09:11:16.338Z,8.00
2023-04-08T09:13:45.224Z,7.88
2023-04-08T09:16:15.128Z,8.09
2023-04-08T09:18:44.763Z,7.81
2023-04-08T09:21:17.352Z,8.08
2023-04-08T09:23:47.037Z,8.45
2023-04-08T09:26:17.058Z,8.35
2023-04-08T09:28:45.974Z,8.33
2023-04-08T09:31:21.842Z,8.24
2023-04-08T09:33:51.586Z,8.59
2023-04-08T09:36:21.150Z,8.60
2023-04-08T09:38:49.518Z,8.50
2023-04-08T09:41:19.062Z,8.50
2023-04-08T09:43:50.607Z,8.52
2023-04-08T09:46:20.584Z,8.51
2023-04-08T09:48:52.466Z,8.74
2023-04-08T09:51:25.462Z,8.82
2023-04-08T09:54:00.762Z,9.24
2023-04-08T09:56:39.683Z,9.54
2023-04-08T09:59:14.969Z,9.56
2023-04-08T10:01:47.860Z,9.37
2023-04-08T10:04:18.517Z,9.39
2023-04-08T10:06:54.562Z,9.46
2023-04-08T10:09:23.515Z,9.62
2023-04-08T10:11:52.611Z,9.74
2023-04-08T10:14:22.491Z,9.49
2023-04-08T10:16:50.622Z,9.00
2023-04-08T10:19:38.642Z,9.14
2023-04-08T10:22:48.854Z,9.19
2023-04-08T10:25:35.240Z,9.11
2023-04-08T10:28:23.514Z,9.02
2023-04-08T10:30:52.597Z,8.98
2023-04-08T10:33:23.470Z,8.96
2023-04-08T10:35:55.406Z,9.03
2023-04-08T10:38:25.198Z,9.36
2023-04-08T10:40:55.422Z,9.66
2023-04-08T10:43:24.302Z,9.65
2023-04-08T10:45:54.640Z,9.65
2023-04-08T10:48:24.805Z,9.77
2023-04-08T10:50:56.722Z,9.79
2023-04-08T10:53:30.804Z,9.93
2023-04-08T10:56:06.411Z,9.68
2023-04-08T10:58:35.674Z,9.69
2023-04-08T11:01:08.418Z,9.89
2023-04-08T11:03:38.437Z,10.14
2023-04-08T11:06:07.517Z,10.25
2023-04-08T11:08:38.775Z,10.35
2023-04-08T11:11:09.459Z,10.34
2023-04-08T11:13:38.477Z,10.27
2023-04-08T11:16:17.805Z,10.43
2023-04-08T11:18:46.907Z,10.64
2023-04-08T11:21:14.957Z,10.64
2023-04-08T11:23:44.520Z,10.48
2023-04-08T11:26:12.878Z,10.58
2023-04-08T11:28:40.965Z,10.64
2023-04-08T11:31:09.227Z,11.21
2023-04-08T11:33:37.946Z,11.34
2023-04-08T11:36:06.366Z,11.26
2023-04-08T11:38:34.418Z,11.30
2023-04-08T11:41:04.394Z,11.20
2023-04-08T11:43:32.714Z,11.22
2023-04-08T11:46:00.884Z,11.49
2023-04-08T11:48:34.147Z,11.37
2023-04-08T11:51:05.746Z,10.91
2023-04-08T11:53:34.129Z,11.27
2023-04-08T11:58:56.481Z,11.11
2023-04-08T12:01:24.380Z,11.07
2023-04-08T12:04:03.184Z,11.03
2023-04-08T12:06:31.946Z,11.14
2023-04-08T12:08:59.860Z,11.00
2023-04-08T12:11:28.811Z,11.29
2023-04-08T12:13:58.067Z,11.08
2023-04-08T12:16:26.259Z,10.74
2023-04-08T12:18:54.376Z,10.72
2023-04-08T12:21:22.412Z,10.91
2023-04-08T12:23:50.766Z,10.88
2023-04-08T12:26:20.078Z,10.90
2023-04-08T12:28:47.993Z,10.88
2023-04-08T12:31:17.368Z,11.10
2023-04-08T12:33:45.495Z,10.98
2023-04-08T12:36:13.846Z,11.36
2023-04-08T12:38:41.787Z,11.88
2023-04-08T12:41:09.692Z,11.91
2023-04-08T12:43:39.013Z,11.97
2023-04-08T12:46:06.908Z,11.82
2023-04-08T12:48:36.947Z,11.29
2023-04-08T12:51:04.985Z,11.07
2023-04-08T12:53:32.846Z,11.15
2023-04-08T12:56:01.253Z,10.94
2023-04-08T12:58:29.180Z,10.84
2023-04-08T13:00:57.127Z,10.65
2023-04-08T13:03:25.245Z,10.73
2023-04-08T13:05:54.771Z,10.69
2023-04-08T13:08:23.282Z,10.72
2023-04-08T13:10:51.515Z,10.64
2023-04-08T13:13:19.574Z,10.85
2023-04-08T13:15:47.761Z,10.96
2023-04-08T13:18:16.099Z,10.71
2023-04-08T13:20:43.977Z,10.57
2023-04-08T13:23:14.568Z,10.55
2023-04-08T13:25:42.689Z,10.39
2023-04-08T13:28:10.715Z,10.50
2023-04-08T13:30:38.670Z,10.51
2023-04-08T13:33:07.268Z,10.56
2023-04-08T13:35:35.321Z,10.63
2023-04-08T13:38:03.274Z,10.83
2023-04-08T13:40:33.528Z,10.73
2023-04-08T13:43:01.647Z,10.83
2023-04-08T13:45:29.579Z,10.85
2023-04-08T13:47:58.140Z,11.16
2023-04-08T13:50:26.244Z,11.21
2023-04-08T13:52:54.036Z,11.58
2023-04-08T13:55:22.387Z,11.54
2023-04-08T13:57:51.586Z,11.39
2023-04-08T14:00:19.443Z,11.56
2023-04-08T14:02:47.730Z,11.48
2023-04-08T14:05:15.788Z,11.53
2023-04-08T14:07:43.642Z,11.61
2023-04-08T14:10:12.040Z,11.79
2023-04-08T14:12:39.875Z,11.84
2023-04-08T14:15:10.746Z,11.90
2023-04-08T14:17:38.754Z,12.07
2023-04-08T14:20:08.150Z,11.55
2023-04-08T14:22:36.074Z,11.55
2023-04-08T14:25:04.001Z,11.59
2023-04-08T14:27:32.262Z,11.44
2023-04-08T14:30:00.460Z,11.28
2023-04-08T14:32:29.957Z,11.11
2023-04-08T14:34:57.866Z,11.23
2023-04-08T14:37:25.699Z,11.18
2023-04-08T14:39:53.813Z,11.07
2023-04-08T14:42:22.561Z,11.09
2023-04-08T14:44:50.332Z,11.17
2023-04-08T14:47:18.523Z,11.02
2023-04-08T14:49:48.596Z,11.07
2023-04-08T14:52:16.453Z,11.13
2023-04-08T14:54:45.293Z,11.30
2023-04-08T14:57:13.527Z,11.34
2023-04-08T14:59:41.484Z,11.29
2023-04-08T15:02:09.888Z,11.14
2023-04-08T15:04:37.819Z,11.16
2023-04-08T15:07:07.601Z,11.24
2023-04-08T15:09:35.458Z,11.24
2023-04-08T15:12:03.254Z,11.20
2023-04-08T15:14:31.043Z,11.33
2023-04-08T15:16:58.970Z,11.31
2023-04-08T15:19:26.806Z,11.40
2023-04-08T15:21:54.619Z,11.53
2023-04-08T15:24:24.208Z,11.47
2023-04-08T15:26:52.146Z,11.48
2023-04-08T15:29:19.988Z,11.41
2023-04-08T15:31:47.886Z,11.33
2023-04-08T15:34:15.717Z,11.17
2023-04-08T15:36:43.517Z,11.07
2023-04-08T15:39:12.064Z,11.09
2023-04-08T15:41:41.698Z,11.01
2023-04-08T15:44:09.636Z,10.97
2023-04-08T15:46:38.135Z,10.99
2023-04-08T15:49:06.207Z,10.93
2023-04-08T15:51:34.819Z,10.94
2023-04-08T15:54:03.149Z,10.93
2023-04-08T15:56:31.132Z,10.93
2023-04-08T15:59:00.334Z,10.92
2023-04-08T16:01:28.485Z,10.94
2023-04-08T16:03:56.663Z,10.92
2023-04-08T16:06:24.568Z,10.82
2023-04-08T16:08:53.431Z,10.87
2023-04-08T16:11:21.942Z,10.84
2023-04-08T16:13:49.775Z,10.84
2023-04-08T16:16:20.206Z,10.63
2023-04-08T16:18:48.595Z,10.63
2023-04-08T16:21:17.208Z,10.59
2023-04-08T16:23:45.129Z,10.42
2023-04-08T16:26:12.998Z,10.30
2023-04-08T16:28:40.876Z,10.27
2023-04-08T16:31:09.073Z,10.19
2023-04-08T16:33:38.360Z,10.12
2023-04-08T16:36:06.571Z,10.08
2023-04-08T16:38:34.441Z,10.02
2023-04-08T16:41:04.415Z,10.05
2023-04-08T16:43:32.220Z,10.03
2023-04-08T16:46:00.446Z,10.02
2023-04-08T16:48:28.248Z,9.99
2023-04-08T16:50:57.761Z,9.93
2023-04-08T16:53:25.685Z,9.87
2023-04-08T16:55:53.707Z,9.76
2023-04-08T16:58:21.740Z,9.65
2023-04-08T17:00:49.980Z,9.62
2023-04-08T17:03:17.961Z,9.58
2023-04-08T17:05:45.940Z,9.51
2023-04-08T17:08:15.790Z,9.51
2023-04-08T17:10:45.308Z,9.44
2023-04-08T17:13:14.931Z,9.35
2023-04-08T17:15:42.906Z,9.29
2023-04-08T17:18:10.728Z,9.25
2023-04-08T17:20:38.598Z,9.17
2023-04-08T17:23:07.242Z,9.07
2023-04-08T17:25:36.518Z,9.03
2023-04-08T17:28:04.286Z,8.98
2023-04-08T17:30:32.450Z,8.92
2023-04-08T17:33:00.321Z,8.82
2023-04-08T17:35:28.263Z,8.76
2023-04-08T17:37:56.695Z,8.74
2023-04-08T17:40:24.532Z,8.65
2023-04-08T17:42:53.718Z,8.54
2023-04-08T17:45:21.792Z,8.52
2023-04-08T17:47:49.551Z,8.45
2023-04-08T17:50:17.411Z,8.39
2023-04-08T17:52:46.198Z,8.29
2023-04-08T17:55:14.718Z,8.23
2023-04-08T17:57:42.876Z,8.18
2023-04-08T18:00:13.313Z,8.15
2023-04-08T18:02:41.932Z,8.07
2023-04-08T18:05:10.928Z,8.00
2023-04-08T18:07:39.486Z,7.88
2023-04-08T18:10:08.887Z,7.87
2023-04-08T18:12:36.870Z,7.85
2023-04-08T18:15:05.276Z,7.86
2023-04-08T18:17:35.974Z,7.76
2023-04-08T18:20:04.027Z,7.72
2023-04-08T18:22:31.990Z,7.64
2023-04-08T18:24:59.846Z,7.58
2023-04-08T18:27:27.876Z,7.48
2023-04-08T18:29:55.980Z,7.49
2023-04-08T18:32:23.822Z,7.38
2023-04-08T18:34:53.589Z,7.46
2023-04-08T18:37:22.124Z,7.42
2023-04-08T18:39:50.071Z,7.46
2023-04-08T18:42:18.162Z,7.34
2023-04-08T18:44:46.377Z,7.38
2023-04-08T18:47:14.456Z,7.31
2023-04-08T18:49:42.443Z,7.34
2023-04-08T18:52:12.152Z,7.32
2023-04-08T18:54:40.084Z,7.33
2023-04-08T18:57:07.932Z,7.32
2023-04-08T18:59:36.181Z,7.31
2023-04-08T19:02:04.128Z,7.32
2023-04-08T19:04:32.157Z,7.34
2023-04-08T19:07:00.443Z,7.39
2023-04-08T19:09:30.164Z,7.43
2023-04-08T19:11:58.134Z,7.47
2023-04-08T19:14:26.127Z,7.37
2023-04-08T19:16:53.867Z,7.38
2023-04-08T19:19:21.985Z,7.36
2023-04-08T19:21:49.912Z,7.34
2023-04-08T19:24:17.788Z,7.37
2023-04-08T19:26:49.359Z,7.44
2023-04-08T19:29:19.597Z,7.49
2023-04-08T19:31:47.637Z,7.59
2023-04-08T19:34:15.620Z,7.62
2023-04-08T19:36:43.503Z,7.67
2023-04-08T19:39:11.269Z,7.73
2023-04-08T19:41:39.132Z,7.69
2023-04-08T19:44:08.648Z,7.79
2023-04-08T19:46:36.531Z,7.75
2023-04-08T19:49:04.515Z,7.70
2023-04-08T19:51:32.968Z,7.68
2023-04-08T19:54:00.883Z,7.75
2023-04-08T19:56:32.516Z,7.68
2023-04-08T19:59:01.471Z,7.66
2023-04-08T20:01:31.105Z,7.62
2023-04-08T20:03:59.087Z,7.57
2023-04-08T20:06:27.172Z,7.54
2023-04-08T20:08:55.710Z,7.54
2023-04-08T20:11:23.705Z,7.52
2023-04-08T20:13:51.718Z,7.54
2023-04-08T20:16:20.758Z,7.47
2023-04-08T20:18:50.293Z,7.42
2023-04-08T20:21:18.588Z,7.36
2023-04-08T20:23:46.409Z,7.35
2023-04-08T20:26:15.701Z,7.29
2023-04-08T20:28:44.737Z,7.24
2023-04-08T20:31:13.134Z,7.14
2023-04-08T20:33:44.001Z,7.06
2023-04-08T20:36:13.860Z,7.02
2023-04-08T20:38:42.434Z,6.98
2023-04-08T20:41:10.585Z,6.98
2023-04-08T20:43:39.570Z,6.92
2023-04-08T20:46:07.620Z,6.81
2023-04-08T20:48:36.155Z,6.75
2023-04-08T20:51:04.251Z,6.65
2023-04-08T20:53:34.498Z,6.43
2023-04-08T20:56:02.967Z,6.46
2023-04-08T20:58:31.187Z,6.46
2023-04-08T21:00:59.882Z,6.53
2023-04-08T21:03:28.206Z,6.42
2023-04-08T21:05:56.899Z,6.28
2023-04-08T21:08:24.702Z,6.12
2023-04-08T21:10:54.620Z,5.97
2023-04-08T21:13:22.746Z,5.88
2023-04-08T21:15:50.564Z,5.82
2023-04-08T21:18:18.425Z,5.75
2023-04-08T21:20:46.846Z,5.76
2023-04-08T21:23:14.803Z,5.82
2023-04-08T21:25:42.669Z,5.83
2023-04-08T21:28:11.879Z,5.69
2023-04-08T21:30:39.677Z,5.65
2023-04-08T21:33:08.003Z,5.68
2023-04-08T21:35:36.294Z,5.70
2023-04-08T21:38:04.271Z,5.79
2023-04-08T21:40:32.139Z,5.72
2023-04-08T21:43:00.249Z,5.66
2023-04-08T21:45:29.969Z,5.63
2023-04-08T21:47:57.781Z,5.55
2023-04-08T21:50:26.188Z,5.42
2023-04-08T21:52:53.919Z,5.32
2023-04-08T21:55:21.749Z,5.35
2023-04-08T21:57:49.914Z,5.23
2023-04-08T22:00:18.071Z,5.23
2023-04-08T22:02:47.531Z,5.13
2023-04-08T22:05:15.718Z,5.05
2023-04-08T22:07:43.775Z,5.06
2023-04-08T22:10:12.626Z,4.99
2023-04-08T22:12:40.894Z,4.95
2023-04-08T22:15:10.035Z,5.01
2023-04-08T22:17:38.036Z,4.96
2023-04-08T22:20:08.536Z,4.87
2023-04-08T22:22:36.481Z,4.85
2023-04-08T22:25:04.424Z,4.84
2023-04-08T22:27:33.124Z,4.88
2023-04-08T22:30:01.013Z,4.95
2023-04-08T22:32:28.960Z,4.86
2023-04-08T22:34:57.028Z,4.72
2023-04-08T22:37:26.186Z,4.74
2023-04-08T22:39:54.078Z,4.71
2023-04-08T22:42:22.259Z,4.75
2023-04-08T22:44:50.055Z,4.67
2023-04-08T22:47:18.210Z,4.59
2023-04-08T22:49:46.286Z,4.49
2023-04-08T22:52:14.128Z,4.49
2023-04-08T22:54:43.372Z,4.51
2023-04-08T22:57:11.468Z,4.44
2023-04-08T22:59:39.295Z,4.31
2023-04-08T23:02:07.331Z,4.19
2023-04-08T23:04:35.412Z,4.16
2023-04-08T23:07:03.218Z,4.19
2023-04-08T23:09:30.995Z,4.24
2023-04-08T23:12:01.689Z,4.22
2023-04-08T23:14:30.177Z,4.28
2023-04-08T23:16:58.073Z,4.44
2023-04-08T23:19:26.041Z,4.48
2023-04-08T23:21:53.869Z,4.29
2023-04-08T23:24:21.656Z,4.11
2023-04-08T23:26:49.998Z,3.92
2023-04-08T23:29:19.299Z,3.77
2023-04-08T23:31:47.142Z,3.68
2023-04-08T23:34:15.244Z,3.57
2023-04-08T23:36:43.058Z,3.52
2023-04-08T23:39:11.033Z,3.46
2023-04-08T23:41:39.088Z,3.53
2023-04-08T23:44:07.293Z,3.43
2023-04-08T23:46:36.530Z,3.41
2023-04-08T23:49:05.072Z,3.37
2023-04-08T23:51:32.863Z,3.35
2023-04-08T23:54:00.774Z,3.10
2023-04-08T23:56:28.772Z,2.94
2023-04-08T23:58:56.706Z,2.90
